createdAt,value
2022-09-24T00:02:11.732Z,100276.09
2022-09-24T00:04:39.733Z,100290.22
2022-09-24T00:07:07.823Z,100284.06
2022-09-24T00:09:35.622Z,100287.59
2022-09-24T00:12:04.201Z,100278.78
2022-09-24T00:14:32.702Z,100269.06
2022-09-24T00:17:00.516Z,100261.13
2022-09-24T00:19:28.311Z,100267.31
2022-09-24T00:21:56.276Z,100265.53
2022-09-24T00:24:42.640Z,100255.84
2022-09-24T00:27:10.969Z,100251.41
2022-09-24T00:29:38.831Z,100254.91
2022-09-24T00:32:06.922Z,100243.44
2022-09-24T00:34:34.874Z,100250.44
2022-09-24T00:37:03.064Z,100255.69
2022-09-24T00:39:30.877Z,100253.94
2022-09-24T00:41:58.782Z,100243.41
2022-09-24T00:44:41.490Z,100231.84
2022-09-24T00:47:35.022Z,100224.72
2022-09-24T00:50:06.277Z,100234.38
2022-09-24T00:53:09.491Z,100237.81
2022-09-24T00:55:38.606Z,100228.16
2022-09-24T00:58:09.015Z,100223.72
2022-09-24T01:00:44.902Z,100229.81
2022-09-24T01:03:23.027Z,100229.78
2022-09-24T01:05:51.780Z,100232.53
2022-09-24T01:08:21.116Z,100222.84
2022-09-24T01:10:54.000Z,100226.13
2022-09-24T01:13:43.361Z,100227.88
2022-09-24T01:16:53.477Z,100233.09
2022-09-24T01:20:01.064Z,100233.13
2022-09-24T01:23:03.500Z,100227.94
2022-09-24T01:25:50.520Z,100219.03
2022-09-24T01:28:43.276Z,100218.06
2022-09-24T01:31:28.359Z,100228.50
2022-09-24T01:33:59.834Z,100240.78
2022-09-24T01:36:29.674Z,100247.78
2022-09-24T01:38:59.745Z,100250.41
2022-09-24T01:41:28.053Z,100247.66
2022-09-24T01:43:55.995Z,100235.31
2022-09-24T01:46:25.197Z,100225.69
2022-09-24T01:48:53.505Z,100220.25
2022-09-24T01:51:34.783Z,100213.09
2022-09-24T01:54:07.888Z,100212.22
2022-09-24T01:57:04.569Z,100210.47
2022-09-24T01:59:40.569Z,100221.00
2022-09-24T02:02:30.669Z,100214.72
2022-09-24T02:05:38.968Z,100211.75
2022-09-24T02:08:23.865Z,100217.00
2022-09-24T02:11:11.524Z,100227.59
2022-09-24T02:13:48.352Z,100230.25
2022-09-24T02:16:22.011Z,100232.00
2022-09-24T02:18:54.896Z,100234.66
2022-09-24T02:21:24.922Z,100230.44
2022-09-24T02:24:21.426Z,100226.69
2022-09-24T02:26:49.435Z,100231.09
2022-09-24T02:29:18.625Z,100226.53
2022-09-24T02:31:49.898Z,100231.69
2022-09-24T02:34:25.920Z,100238.69
2022-09-24T02:37:15.161Z,100241.25
2022-09-24T02:39:43.694Z,100244.91
2022-09-24T02:42:14.172Z,100244.09
2022-09-24T02:44:41.926Z,100230.84
2022-09-24T02:47:09.969Z,100215.06
2022-09-24T02:49:37.762Z,100218.63
2022-09-24T02:52:05.755Z,100224.88
2022-09-24T02:54:34.198Z,100224.84
2022-09-24T02:57:02.104Z,100227.47
2022-09-24T02:59:29.938Z,100227.34
2022-09-24T03:01:57.782Z,100229.03
2022-09-24T03:04:26.309Z,100244.84
2022-09-24T03:06:54.382Z,100240.34
2022-09-24T03:09:22.216Z,100253.53
2022-09-24T03:11:50.233Z,100258.00
2022-09-24T03:14:18.161Z,100262.25
2022-09-24T03:16:45.991Z,100272.03
2022-09-24T03:19:13.779Z,100275.47
2022-09-24T03:21:41.541Z,100275.31
2022-09-24T03:24:09.361Z,100262.59
2022-09-24T03:26:38.224Z,100274.84
2022-09-24T03:29:05.997Z,100260.59
2022-09-24T03:31:33.941Z,100268.50
2022-09-24T03:34:01.851Z,100276.59
2022-09-24T03:36:29.776Z,100272.28
2022-09-24T03:38:58.025Z,100260.03
2022-09-24T03:41:27.801Z,100267.03
2022-09-24T03:43:56.403Z,100264.31
2022-09-24T03:46:30.614Z,100267.56
2022-09-24T03:49:00.603Z,100274.53
2022-09-24T03:51:29.053Z,100270.22
2022-09-24T03:53:56.838Z,100286.88
2022-09-24T03:56:25.218Z,100270.13
2022-09-24T03:58:53.887Z,100275.31
2022-09-24T04:01:22.216Z,100271.84
2022-09-24T04:03:51.033Z,100280.78
2022-09-24T04:06:24.852Z,100271.03
2022-09-24T04:08:54.413Z,100265.66
2022-09-24T04:11:23.302Z,100265.63
2022-09-24T04:13:51.779Z,100258.50
2022-09-24T04:16:20.237Z,100269.00
2022-09-24T04:18:48.919Z,100283.91
2022-09-24T04:21:17.242Z,100284.53
2022-09-24T04:23:45.548Z,100277.69
2022-09-24T04:26:13.636Z,100285.00
2022-09-24T04:28:41.635Z,100280.41
2022-09-24T04:31:10.150Z,100281.22
2022-09-24T04:33:38.160Z,100294.63
2022-09-24T04:36:06.183Z,100289.38
2022-09-24T04:38:34.799Z,100283.19
2022-09-24T04:41:09.627Z,100290.94
2022-09-24T04:43:38.008Z,100307.69
2022-09-24T04:46:06.778Z,100309.38
2022-09-24T04:48:38.261Z,100312.94
2022-09-24T04:51:08.644Z,100312.97
2022-09-24T04:53:37.444Z,100324.25
2022-09-24T04:56:12.159Z,100333.56
2022-09-24T04:58:40.324Z,100338.84
2022-09-24T05:01:08.471Z,100335.25
2022-09-24T05:03:36.448Z,100350.31
2022-09-24T05:06:04.274Z,100342.56
2022-09-24T05:08:32.014Z,100339.34
2022-09-24T05:11:00.790Z,100341.22
2022-09-24T05:13:28.675Z,100355.97
2022-09-24T05:15:56.498Z,100376.13
2022-09-24T05:18:24.405Z,100375.25
2022-09-24T05:20:52.532Z,100384.03
2022-09-24T05:23:20.342Z,100391.22
2022-09-24T05:26:06.504Z,100399.28
2022-09-24T05:28:35.301Z,100393.13
2022-09-24T05:31:03.150Z,100404.75
2022-09-24T05:33:30.918Z,100403.97
2022-09-24T05:35:59.109Z,100414.69
2022-09-24T05:38:27.024Z,100414.81
2022-09-24T05:40:54.957Z,100438.63
2022-09-24T05:43:22.925Z,100421.88
2022-09-24T05:45:51.035Z,100413.94
2022-09-24T05:48:18.811Z,100407.69
2022-09-24T05:50:46.968Z,100418.31
2022-09-24T05:53:17.691Z,100413.09
2022-09-24T05:55:45.505Z,100418.41
2022-09-24T05:58:13.840Z,100415.03
2022-09-24T06:00:41.765Z,100422.19
2022-09-24T06:03:16.748Z,100444.19
2022-09-24T06:05:50.730Z,100457.53
2022-09-24T06:08:20.679Z,100447.03
2022-09-24T06:10:49.232Z,100444.56
2022-09-24T06:13:21.025Z,100436.72
2022-09-24T06:15:49.313Z,100417.47
2022-09-24T06:18:17.665Z,100412.28
2022-09-24T06:20:47.063Z,100418.63
2022-09-24T06:23:15.034Z,100420.53
2022-09-24T06:25:42.892Z,100427.66
2022-09-24T06:28:11.153Z,100442.75
2022-09-24T06:30:39.636Z,100445.56
2022-09-24T06:33:12.778Z,100450.88
2022-09-24T06:35:42.846Z,100452.66
2022-09-24T06:38:16.294Z,100451.84
2022-09-24T06:40:47.039Z,100455.44
2022-09-24T06:43:15.429Z,100452.03
2022-09-24T06:45:43.214Z,100451.28
2022-09-24T06:48:14.178Z,100450.44
2022-09-24T06:50:45.528Z,100454.94
2022-09-24T06:53:13.533Z,100451.50
2022-09-24T06:55:42.275Z,100451.59
2022-09-24T06:58:23.650Z,100462.44
2022-09-24T07:01:02.948Z,100466.13
2022-09-24T07:03:33.684Z,100484.81
2022-09-24T07:06:04.667Z,100484.03
2022-09-24T07:08:33.099Z,100467.22
2022-09-24T07:11:01.636Z,100470.78
2022-09-24T07:13:29.672Z,100469.16
2022-09-24T07:15:57.483Z,100470.13
2022-09-24T07:18:25.318Z,100481.72
2022-09-24T07:20:57.085Z,100469.41
2022-09-24T07:23:24.885Z,100481.00
2022-09-24T07:25:57.382Z,100454.47
2022-09-24T07:28:25.633Z,100451.94
2022-09-24T07:30:58.632Z,100449.38
2022-09-24T07:33:26.594Z,100428.13
2022-09-24T07:35:54.352Z,100417.50
2022-09-24T07:38:22.546Z,100411.34
2022-09-24T07:40:50.488Z,100422.91
2022-09-24T07:43:18.348Z,100422.00
2022-09-24T07:45:46.408Z,100403.47
2022-09-24T07:48:15.814Z,100395.53
2022-09-24T07:50:43.705Z,100393.81
2022-09-24T07:53:12.913Z,100399.19
2022-09-24T07:55:41.523Z,100388.59
2022-09-24T07:58:16.514Z,100405.41
2022-09-24T08:00:44.481Z,100413.38
2022-09-24T08:03:12.384Z,100397.47
2022-09-24T08:05:47.906Z,100402.78
2022-09-24T08:08:16.187Z,100401.03
2022-09-24T08:10:44.450Z,100373.59
2022-09-24T08:13:12.364Z,100378.03
2022-09-24T08:15:40.906Z,100374.47
2022-09-24T08:18:09.285Z,100379.75
2022-09-24T08:20:38.772Z,100389.50
2022-09-24T08:23:12.660Z,100374.47
2022-09-24T08:25:40.551Z,100393.94
2022-09-24T08:28:12.218Z,100371.78
2022-09-24T08:30:40.978Z,100371.78
2022-09-24T08:33:09.692Z,100388.59
2022-09-24T08:35:40.342Z,100396.56
2022-09-24T08:38:09.307Z,100398.34
2022-09-24T08:40:51.124Z,100401.91
2022-09-24T08:43:39.998Z,100398.34
2022-09-24T08:46:42.898Z,100400.16
2022-09-24T08:49:18.191Z,100413.41
2022-09-24T08:52:31.246Z,100403.66
2022-09-24T08:55:07.831Z,100405.41
2022-09-24T08:58:06.224Z,100399.19
2022-09-24T09:00:53.416Z,100388.59
2022-09-24T09:03:39.627Z,100392.09
2022-09-24T09:06:32.425Z,100400.00
2022-09-24T09:09:22.902Z,100385.78
2022-09-24T09:11:59.639Z,100394.53
2022-09-24T09:14:54.934Z,100407.63
2022-09-24T09:17:52.149Z,100369.59
2022-09-24T09:20:30.782Z,100381.00
2022-09-24T09:23:05.887Z,100356.22
2022-09-24T09:25:36.969Z,100351.81
2022-09-24T09:28:15.779Z,100358.84
2022-09-24T09:31:04.547Z,100343.81
2022-09-24T09:33:50.939Z,100342.91
2022-09-24T09:36:53.356Z,100367.63
2022-09-24T09:39:59.542Z,100364.00
2022-09-24T09:42:36.046Z,100399.25
2022-09-24T09:45:34.436Z,100389.47
2022-09-24T09:48:03.677Z,100385.03
2022-09-24T09:50:46.517Z,100362.06
2022-09-24T09:53:31.242Z,100377.75
2022-09-24T09:56:06.504Z,100369.88
2022-09-24T09:58:37.884Z,100366.31
2022-09-24T10:01:13.144Z,100349.44
2022-09-24T10:03:47.096Z,100360.72
2022-09-24T10:06:28.479Z,100328.03
2022-09-24T10:09:17.527Z,100366.72
2022-09-24T10:11:46.451Z,100322.63
2022-09-24T10:14:26.466Z,100341.81
2022-09-24T10:17:09.658Z,100310.81
2022-09-24T10:19:50.497Z,100271.06
2022-09-24T10:22:36.594Z,100295.53
2022-09-24T10:25:05.293Z,100282.31
2022-09-24T10:27:36.669Z,100302.47
2022-09-24T10:30:35.113Z,100285.28
2022-09-24T10:33:04.974Z,100270.53
2022-09-24T10:35:38.765Z,100333.81
2022-09-24T10:38:22.226Z,100324.38
2022-09-24T10:40:51.992Z,100282.63
2022-09-24T10:43:22.394Z,100300.97
2022-09-24T10:46:10.036Z,100267.78
2022-09-24T10:48:55.105Z,100226.53
2022-09-24T10:51:57.825Z,100246.72
2022-09-24T10:54:48.914Z,100258.03
2022-09-24T10:57:31.949Z,100230.81
2022-09-24T11:00:20.296Z,100219.00
2022-09-24T11:03:06.250Z,100177.72
2022-09-24T11:05:45.243Z,100255.91
2022-09-24T11:08:46.537Z,100256.41
2022-09-24T11:11:56.994Z,100276.28
2022-09-24T11:14:38.734Z,100239.28
2022-09-24T11:17:24.687Z,100227.97
2022-09-24T11:20:13.302Z,100185.13
2022-09-24T11:23:11.443Z,100208.66
2022-09-24T11:25:51.728Z,100226.22
2022-09-24T11:28:38.733Z,100225.81
2022-09-24T11:31:50.474Z,100218.31
2022-09-24T11:35:06.378Z,100200.06
2022-09-24T11:37:40.064Z,100129.13
2022-09-24T11:40:30.161Z,100184.03
2022-09-24T11:43:26.559Z,100194.13
2022-09-24T11:46:10.398Z,100161.56
2022-09-24T11:49:10.105Z,100202.69
2022-09-24T11:51:54.705Z,100109.47
2022-09-24T11:55:12.101Z,100048.78
2022-09-24T11:57:59.835Z,100070.38
2022-09-24T12:00:40.621Z,100094.69
2022-09-24T12:03:36.694Z,100085.53
2022-09-24T12:06:47.405Z,100085.94
2022-09-24T12:09:40.823Z,100137.63
2022-09-24T12:12:23.254Z,100102.75
2022-09-24T12:15:24.679Z,100110.97
2022-09-24T12:18:02.780Z,100035.25
2022-09-24T12:20:41.657Z,100119.94
2022-09-24T12:23:13.562Z,100085.94
2022-09-24T12:25:45.854Z,100111.16
2022-09-24T12:28:37.566Z,100036.03
2022-09-24T12:31:48.724Z,100039.81
2022-09-24T12:34:31.278Z,100060.66
2022-09-24T12:37:10.680Z,100036.81
2022-09-24T12:40:35.925Z,100059.75
2022-09-24T12:43:25.311Z,100028.91
2022-09-24T12:46:02.415Z,100057.44
2022-09-24T12:48:34.859Z,100037.47
2022-09-24T12:51:06.705Z,100032.75
2022-09-24T12:53:38.551Z,100044.78
2022-09-24T12:56:07.490Z,100062.03
2022-09-24T12:58:44.757Z,100067.16
2022-09-24T13:01:23.327Z,100035.56
2022-09-24T13:04:26.886Z,100007.00
2022-09-24T13:06:55.425Z,100040.34
2022-09-24T13:09:37.833Z,100042.25
2022-09-24T13:12:21.854Z,100024.28
2022-09-24T13:15:02.982Z,99995.78
2022-09-24T13:17:34.193Z,100043.81
2022-09-24T13:20:09.320Z,100066.03
2022-09-24T13:22:38.071Z,100032.47
2022-09-24T13:25:27.294Z,100039.34
2022-09-24T13:28:04.713Z,100011.34
2022-09-24T13:30:38.075Z,99981.69
2022-09-24T13:33:10.009Z,100050.91
2022-09-24T13:35:50.581Z,100014.78
2022-09-24T13:38:22.521Z,100019.78
2022-09-24T13:41:02.570Z,100015.72
2022-09-24T13:43:47.483Z,100021.13
2022-09-24T13:46:19.696Z,99995.81
2022-09-24T13:49:11.246Z,100005.72
2022-09-24T13:51:40.702Z,100036.09
2022-09-24T13:54:30.271Z,100036.44
2022-09-24T13:57:11.371Z,100017.00
2022-09-24T13:59:39.272Z,99986.72
2022-09-24T14:02:27.955Z,99991.94
2022-09-24T14:05:01.145Z,99968.94
2022-09-24T14:07:29.727Z,100001.75
2022-09-24T14:10:13.880Z,99987.31
2022-09-24T14:12:41.704Z,99980.47
2022-09-24T14:15:18.909Z,100008.34
2022-09-24T14:17:59.225Z,99971.69
2022-09-24T14:20:34.335Z,99951.16
2022-09-24T14:23:04.518Z,99959.44
2022-09-24T14:25:36.661Z,99957.75
2022-09-24T14:28:05.900Z,99959.03
2022-09-24T14:30:40.304Z,99949.81
2022-09-24T14:33:17.117Z,99956.41
2022-09-24T14:35:48.958Z,99902.94
2022-09-24T14:38:25.739Z,99899.53
2022-09-24T14:41:18.791Z,99936.50
2022-09-24T14:44:00.875Z,99941.38
2022-09-24T14:46:36.519Z,99996.63
2022-09-24T14:49:31.623Z,99974.03
2022-09-24T14:52:07.250Z,99934.84
2022-09-24T14:54:41.256Z,99975.84
2022-09-24T14:57:36.372Z,99934.03
2022-09-24T15:00:48.741Z,99945.03
2022-09-24T15:03:20.811Z,99935.88
2022-09-24T15:05:48.762Z,99891.44
2022-09-24T15:08:22.531Z,99889.03
2022-09-24T15:10:57.475Z,99860.75
2022-09-24T15:13:37.428Z,99852.44
2022-09-24T15:16:32.391Z,99850.34
2022-09-24T15:19:16.980Z,99865.44
2022-09-24T15:21:49.117Z,99870.69
2022-09-24T15:24:18.146Z,99861.88
2022-09-24T15:26:50.701Z,99855.78
2022-09-24T15:29:24.498Z,99855.59
2022-09-24T15:31:54.356Z,99840.69
2022-09-24T15:34:22.641Z,99829.44
2022-09-24T15:36:59.564Z,99834.06
2022-09-24T15:39:28.600Z,99834.69
2022-09-24T15:41:57.989Z,99844.41
2022-09-24T15:44:32.932Z,99841.84
2022-09-24T15:47:01.779Z,99840.91
2022-09-24T15:49:30.086Z,99857.59
2022-09-24T15:52:24.756Z,99849.06
2022-09-24T15:54:55.319Z,99835.41
2022-09-24T15:57:23.423Z,99841.03
2022-09-24T15:59:51.359Z,99836.75
2022-09-24T16:02:28.944Z,99826.53
2022-09-24T16:05:02.679Z,99827.06
2022-09-24T16:07:31.962Z,99839.72
2022-09-24T16:09:59.995Z,99843.78
2022-09-24T16:12:28.372Z,99859.88
2022-09-24T16:14:59.301Z,99826.44
2022-09-24T16:17:28.776Z,99797.88
2022-09-24T16:19:57.167Z,99735.78
2022-09-24T16:22:25.198Z,99758.47
2022-09-24T16:24:54.266Z,99716.78
2022-09-24T16:27:22.619Z,99704.81
2022-09-24T16:29:50.809Z,99697.34
2022-09-24T16:32:18.679Z,99664.56
2022-09-24T16:34:46.914Z,99626.25
2022-09-24T16:37:16.787Z,99576.16
2022-09-24T16:39:45.093Z,99589.59
2022-09-24T16:42:12.837Z,99601.88
2022-09-24T16:44:40.811Z,99618.88
2022-09-24T16:47:08.851Z,99643.00
2022-09-24T16:49:37.225Z,99641.38
2022-09-24T16:52:06.298Z,99622.84
2022-09-24T16:54:34.370Z,99651.84
2022-09-24T16:57:03.574Z,99684.41
2022-09-24T16:59:31.359Z,99698.88
2022-09-24T17:01:59.989Z,99717.84
2022-09-24T17:04:28.477Z,99676.44
2022-09-24T17:06:59.187Z,99672.06
2022-09-24T17:09:46.262Z,99694.03
2022-09-24T17:12:14.067Z,99692.72
2022-09-24T17:14:42.053Z,99692.19
2022-09-24T17:17:09.932Z,99682.09
2022-09-24T17:19:37.763Z,99706.63
2022-09-24T17:22:05.637Z,99683.63
2022-09-24T17:24:35.970Z,99627.69
2022-09-24T17:27:03.870Z,99632.19
2022-09-24T17:29:31.991Z,99674.16
2022-09-24T17:32:00.116Z,99687.47
2022-09-24T17:34:28.196Z,99674.56
2022-09-24T17:36:57.132Z,99673.03
2022-09-24T17:39:25.279Z,99658.25
2022-09-24T17:41:53.078Z,99668.22
2022-09-24T17:44:21.009Z,99697.16
2022-09-24T17:46:48.861Z,99706.28
2022-09-24T17:49:16.814Z,99711.75
2022-09-24T17:51:47.550Z,99712.63
2022-09-24T17:54:21.238Z,99704.66
2022-09-24T17:56:49.664Z,99698.66
2022-09-24T17:59:17.517Z,99705.03
2022-09-24T18:01:46.493Z,99734.34
2022-09-24T18:04:19.319Z,99742.72
2022-09-24T18:06:49.631Z,99767.66
2022-09-24T18:09:18.825Z,99769.53
2022-09-24T18:11:52.518Z,99775.72
2022-09-24T18:14:22.737Z,99775.59
2022-09-24T18:16:51.212Z,99757.28
2022-09-24T18:19:19.252Z,99755.47
2022-09-24T18:21:49.256Z,99732.59
2022-09-24T18:24:17.542Z,99729.16
2022-09-24T18:26:49.505Z,99744.28
2022-09-24T18:29:20.160Z,99744.28
2022-09-24T18:31:48.387Z,99752.34
2022-09-24T18:34:17.733Z,99761.31
2022-09-24T18:36:48.276Z,99765.75
2022-09-24T18:39:21.778Z,99770.13
2022-09-24T18:41:52.067Z,99778.91
2022-09-24T18:44:19.948Z,99774.56
2022-09-24T18:46:48.141Z,99784.31
2022-09-24T18:49:17.470Z,99783.31
2022-09-24T18:51:46.614Z,99786.97
2022-09-24T18:54:15.710Z,99791.59
2022-09-24T18:56:43.953Z,99816.69
2022-09-24T18:59:18.439Z,99863.28
2022-09-24T19:01:48.664Z,99899.88
2022-09-24T19:04:18.208Z,99943.91
2022-09-24T19:06:50.837Z,99975.81
2022-09-24T19:09:20.480Z,100012.06
2022-09-24T19:14:40.244Z,100072.16
2022-09-24T19:17:08.286Z,100112.03
2022-09-24T19:19:36.834Z,100117.44
2022-09-24T19:22:04.724Z,100123.81
2022-09-24T19:24:32.756Z,100142.41
2022-09-24T19:27:00.589Z,100145.91
2022-09-24T19:29:28.563Z,100165.28
2022-09-24T19:31:56.431Z,100171.47
2022-09-24T19:34:24.207Z,100171.38
2022-09-24T19:36:52.254Z,100182.91
2022-09-24T19:39:20.234Z,100185.66
2022-09-24T19:41:51.595Z,100197.13
2022-09-24T19:44:19.598Z,100207.72
2022-09-24T19:46:47.449Z,100219.25
2022-09-24T19:49:15.332Z,100229.84
2022-09-24T19:51:43.330Z,100229.88
2022-09-24T19:54:11.624Z,100249.41
2022-09-24T19:56:40.146Z,100255.63
2022-09-24T19:59:09.614Z,100270.69
2022-09-24T20:01:37.943Z,100284.00
2022-09-24T20:04:07.882Z,100284.84
2022-09-24T20:06:37.681Z,100301.75
2022-09-24T20:09:06.997Z,100321.25
2022-09-24T20:11:35.801Z,100333.66
2022-09-24T20:14:06.215Z,100339.81
2022-09-24T20:16:34.748Z,100342.50
2022-09-24T20:19:03.522Z,100347.84
2022-09-24T20:21:38.237Z,100354.03
2022-09-24T20:24:10.010Z,100361.13
2022-09-24T20:26:58.164Z,100359.34
2022-09-24T20:29:25.949Z,100361.09
2022-09-24T20:31:56.239Z,100377.03
2022-09-24T20:34:28.836Z,100384.13
2022-09-24T20:37:01.665Z,100378.81
2022-09-24T20:39:30.469Z,100383.22
2022-09-24T20:42:06.058Z,100385.91
2022-09-24T20:44:34.623Z,100396.53
2022-09-24T20:47:02.491Z,100400.06
2022-09-24T20:49:30.625Z,100403.59
2022-09-24T20:51:58.634Z,100406.22
2022-09-24T20:54:28.701Z,100397.41
2022-09-24T20:56:57.308Z,100404.50
2022-09-24T20:59:26.743Z,100411.59
2022-09-24T21:01:55.320Z,100402.75
2022-09-24T21:04:24.341Z,100406.28
2022-09-24T21:06:52.580Z,100415.16
2022-09-24T21:09:20.552Z,100422.25
2022-09-24T21:11:50.570Z,100426.66
2022-09-24T21:14:19.185Z,100431.09
2022-09-24T21:16:47.480Z,100424.00
2022-09-24T21:19:16.083Z,100418.69
2022-09-24T21:21:43.976Z,100416.03
2022-09-24T21:24:15.383Z,100424.91
2022-09-24T21:26:45.355Z,100428.44
2022-09-24T21:29:18.219Z,100427.56
2022-09-24T21:31:47.808Z,100429.31
2022-09-24T21:34:19.865Z,100424.00
2022-09-24T21:36:48.228Z,100428.44
2022-09-24T21:39:31.347Z,100424.91
2022-09-24T21:41:59.444Z,100430.22
2022-09-24T21:44:34.597Z,100430.22
2022-09-24T21:47:03.475Z,100427.56
2022-09-24T21:49:33.663Z,100424.03
2022-09-24T21:52:04.935Z,100423.13
2022-09-24T21:54:33.621Z,100416.94
2022-09-24T21:57:01.704Z,100433.78
2022-09-24T21:59:47.802Z,100437.31
2022-09-24T22:02:15.791Z,100439.06
2022-09-24T22:04:44.430Z,100428.47
2022-09-24T22:07:12.880Z,100440.88
2022-09-24T22:09:41.110Z,100432.88
2022-09-24T22:12:10.606Z,100424.03
2022-09-24T22:14:43.282Z,100424.03
2022-09-24T22:17:11.751Z,100424.03
2022-09-24T22:19:40.235Z,100427.56
2022-09-24T22:22:08.101Z,100423.13
2022-09-24T22:24:36.545Z,100424.91
2022-09-24T22:27:05.000Z,100410.72
2022-09-24T22:29:32.798Z,100408.97
2022-09-24T22:32:00.693Z,100412.50
2022-09-24T22:34:47.081Z,100421.38
2022-09-24T22:37:14.948Z,100422.25
2022-09-24T22:39:42.882Z,100424.00
2022-09-24T22:42:14.330Z,100419.59
2022-09-24T22:44:42.194Z,100424.03
2022-09-24T22:47:09.989Z,100423.16
2022-09-24T22:49:38.104Z,100421.38
2022-09-24T22:52:05.970Z,100424.03
2022-09-24T22:54:33.813Z,100419.59
2022-09-24T22:57:01.774Z,100418.72
2022-09-24T22:59:29.613Z,100427.59
2022-09-24T23:01:57.405Z,100436.44
2022-09-24T23:04:25.341Z,100454.13
2022-09-24T23:06:53.589Z,100439.06
2022-09-24T23:09:21.625Z,100446.16
2022-09-24T23:11:49.535Z,100448.81
2022-09-24T23:14:17.328Z,100460.31
2022-09-24T23:16:46.888Z,100449.72
2022-09-24T23:19:18.760Z,100448.81
2022-09-24T23:21:47.072Z,100447.06
2022-09-24T23:24:18.697Z,100444.41
2022-09-24T23:26:47.164Z,100433.78
2022-09-24T23:29:15.779Z,100436.41
2022-09-24T23:31:43.818Z,100431.13
2022-09-24T23:34:14.220Z,100441.72
2022-09-24T23:36:42.609Z,100443.50
2022-09-24T23:39:10.969Z,100451.47
2022-09-24T23:41:38.761Z,100447.03
2022-09-24T23:44:06.919Z,100443.50
2022-09-24T23:46:34.935Z,100442.59
2022-09-24T23:49:03.343Z,100453.25
2022-09-24T23:51:31.353Z,100460.31
2022-09-24T23:53:59.290Z,100460.31
2022-09-24T23:56:28.461Z,100462.09
2022-09-24T23:58:56.914Z,100467.41
